createdAt,value
2024-01-15T00:03:42.422Z,975
2024-01-15T00:08:44.570Z,975
2024-01-15T00:13:45.972Z,975
2024-01-15T00:18:47.484Z,975
2024-01-15T00:23:48.999Z,975
2024-01-15T00:28:50.596Z,975
2024-01-15T00:33:52.384Z,976
2024-01-15T00:38:53.958Z,976
2024-01-15T00:43:55.736Z,976
2024-01-15T00:48:57.571Z,976
2024-01-15T00:53:59.311Z,976
2024-01-15T00:59:01.334Z,976
2024-01-15T01:04:04.761Z,976
2024-01-15T01:09:06.613Z,976
2024-01-15T01:14:10.578Z,976
2024-01-15T01:19:12.288Z,976
2024-01-15T01:24:14.162Z,976
2024-01-15T01:29:18.566Z,976
2024-01-15T01:34:20.135Z,976
2024-01-15T01:39:23.507Z,976
2024-01-15T01:44:25.256Z,976
2024-01-15T01:49:30.281Z,976
2024-01-15T01:54:32.859Z,977
2024-01-15T01:59:34.558Z,977
2024-01-15T02:04:38.143Z,977
2024-01-15T02:09:41.429Z,977
2024-01-15T02:14:43.133Z,977
2024-01-15T02:19:45.844Z,977
2024-01-15T02:24:48.540Z,977
2024-01-15T02:29:50.348Z,977
2024-01-15T02:34:52.286Z,977
2024-01-15T02:39:54.230Z,977
2024-01-15T02:44:56.149Z,977
2024-01-15T02:49:58.085Z,978
2024-01-15T02:55:00.363Z,978
2024-01-15T03:00:02.611Z,978
2024-01-15T03:05:04.282Z,978
2024-01-15T03:10:05.831Z,978
2024-01-15T03:15:07.707Z,978
2024-01-15T03:20:09.313Z,978
2024-01-15T03:25:10.876Z,978
2024-01-15T03:30:12.469Z,978
2024-01-15T03:35:14.006Z,979
2024-01-15T03:40:16.645Z,979
2024-01-15T03:45:19.548Z,979
2024-01-15T03:50:21.214Z,979
2024-01-15T03:55:22.632Z,979
2024-01-15T04:00:24.155Z,979
2024-01-15T04:05:25.556Z,979
2024-01-15T04:10:26.959Z,979
2024-01-15T04:15:28.565Z,979
2024-01-15T04:20:29.965Z,979
2024-01-15T04:25:31.367Z,979
2024-01-15T04:30:32.915Z,979
2024-01-15T04:35:34.468Z,979
2024-01-15T04:40:36.127Z,980
2024-01-15T04:45:37.644Z,980
2024-01-15T04:50:39.174Z,980
2024-01-15T04:55:40.691Z,980
2024-01-15T05:00:42.367Z,980
2024-01-15T05:05:43.929Z,980
2024-01-15T05:10:45.376Z,980
2024-01-15T05:15:47.190Z,980
2024-01-15T05:20:48.750Z,980
2024-01-15T05:25:50.263Z,980
2024-01-15T05:30:51.903Z,981
2024-01-15T05:35:53.669Z,981
2024-01-15T05:40:55.071Z,981
2024-01-15T05:45:56.545Z,981
2024-01-15T05:50:58.005Z,981
2024-01-15T05:55:59.485Z,981
2024-01-15T06:01:01.137Z,981
2024-01-15T06:06:02.912Z,981
2024-01-15T06:11:04.666Z,981
2024-01-15T06:16:07.387Z,981
2024-01-15T06:21:09.088Z,981
2024-01-15T06:26:10.501Z,981
2024-01-15T06:31:12.202Z,982
2024-01-15T06:36:13.749Z,982
2024-01-15T06:41:15.385Z,982
2024-01-15T06:46:16.788Z,982
2024-01-15T06:51:18.281Z,982
2024-01-15T06:56:19.739Z,982
2024-01-15T07:01:21.212Z,982
2024-01-15T07:06:22.771Z,982
2024-01-15T07:11:24.240Z,982
2024-01-15T07:16:36.022Z,982
2024-01-15T07:21:39.458Z,982
2024-01-15T07:26:41.111Z,982
2024-01-15T07:31:42.737Z,983
2024-01-15T07:36:44.262Z,983
2024-01-15T07:41:45.749Z,983
2024-01-15T07:46:47.489Z,983
2024-01-15T07:51:49.008Z,983
2024-01-15T07:56:50.656Z,983
2024-01-15T08:01:52.140Z,983
2024-01-15T08:06:53.575Z,983
2024-01-15T08:11:55.124Z,983
2024-01-15T08:16:56.741Z,983
2024-01-15T08:21:58.205Z,983
2024-01-15T08:26:59.872Z,983
2024-01-15T08:32:01.489Z,983
2024-01-15T08:37:03.244Z,983
2024-01-15T08:42:04.641Z,983
2024-01-15T08:47:06.290Z,983
2024-01-15T08:52:07.801Z,984
2024-01-15T08:57:09.273Z,984
2024-01-15T09:02:10.788Z,984
2024-01-15T09:07:12.361Z,984
2024-01-15T09:12:13.851Z,984
2024-01-15T09:17:15.372Z,984
2024-01-15T09:22:16.793Z,984
2024-01-15T09:27:18.194Z,984
2024-01-15T09:32:19.730Z,984
2024-01-15T09:37:32.373Z,984
2024-01-15T09:42:43.901Z,984
2024-01-15T09:47:46.545Z,984
2024-01-15T09:52:48.379Z,984
2024-01-15T09:57:49.929Z,984
2024-01-15T10:02:51.692Z,984
2024-01-15T10:07:53.429Z,985
2024-01-15T10:12:55.013Z,984
2024-01-15T10:17:56.708Z,985
2024-01-15T10:22:58.326Z,985
2024-01-15T10:27:59.903Z,985
2024-01-15T10:33:02.662Z,985
2024-01-15T10:38:04.300Z,985
2024-01-15T10:43:05.865Z,985
2024-01-15T10:48:07.420Z,985
2024-01-15T10:53:08.940Z,985
2024-01-15T10:58:10.335Z,985
2024-01-15T11:03:11.898Z,985
2024-01-15T11:08:13.525Z,985
2024-01-15T11:13:14.969Z,985
2024-01-15T11:18:16.503Z,985
2024-01-15T11:23:18.078Z,985
2024-01-15T11:28:19.539Z,985
2024-01-15T11:33:21.220Z,985
2024-01-15T11:38:22.793Z,985
2024-01-15T11:43:24.202Z,985
2024-01-15T11:48:25.619Z,985
2024-01-15T11:53:27.076Z,985
2024-01-15T11:58:28.570Z,985
2024-01-15T12:03:29.969Z,985
2024-01-15T12:08:31.449Z,985
2024-01-15T12:13:32.878Z,985
2024-01-15T12:18:34.444Z,985
2024-01-15T12:23:35.989Z,985
2024-01-15T12:28:37.386Z,985
2024-01-15T12:33:38.871Z,985
2024-01-15T12:38:40.346Z,985
2024-01-15T12:43:41.742Z,985
2024-01-15T12:48:43.309Z,985
2024-01-15T12:53:44.709Z,985
2024-01-15T12:58:46.096Z,985
2024-01-15T13:03:47.672Z,985
2024-01-15T13:08:49.346Z,985
2024-01-15T13:13:50.718Z,985
2024-01-15T13:18:52.311Z,985
2024-01-15T13:23:53.769Z,985
2024-01-15T13:28:55.249Z,985
2024-01-15T13:33:57.017Z,985
2024-01-15T13:38:58.508Z,985
2024-01-15T13:44:00.146Z,985
2024-01-15T13:49:01.913Z,985
2024-01-15T13:54:03.464Z,985
2024-01-15T13:59:04.878Z,985
2024-01-15T14:04:06.568Z,985
2024-01-15T14:09:08.077Z,985
2024-01-15T14:14:09.508Z,985
2024-01-15T14:19:11.366Z,985
2024-01-15T14:24:12.891Z,985
2024-01-15T14:29:14.409Z,985
2024-01-15T14:34:15.934Z,985
2024-01-15T14:39:17.458Z,985
2024-01-15T14:44:18.955Z,985
2024-01-15T14:49:20.459Z,985
2024-01-15T14:54:24.713Z,985
2024-01-15T14:59:26.579Z,985
2024-01-15T15:04:28.218Z,985
2024-01-15T15:09:29.898Z,985
2024-01-15T15:14:31.553Z,985
2024-01-15T15:19:33.048Z,985
2024-01-15T15:24:34.658Z,985
2024-01-15T15:29:36.310Z,985
2024-01-15T15:34:37.847Z,986
2024-01-15T15:39:39.513Z,986
2024-01-15T15:44:40.948Z,986
2024-01-15T15:49:42.640Z,986
2024-01-15T15:54:44.319Z,986
2024-01-15T15:59:45.947Z,986
2024-01-15T16:04:47.471Z,986
2024-01-15T16:09:49.062Z,986
2024-01-15T16:14:50.580Z,986
2024-01-15T16:23:27.605Z,986
2024-01-15T16:29:06.307Z,986
2024-01-15T16:34:09.849Z,986
2024-01-15T16:39:13.253Z,986
2024-01-15T16:44:14.890Z,986
2024-01-15T16:49:19.589Z,986
2024-01-15T16:54:21.526Z,986
2024-01-15T16:59:29.543Z,986
2024-01-15T17:04:31.123Z,986
2024-01-15T17:09:32.618Z,986
2024-01-15T17:14:34.053Z,986
2024-01-15T17:19:35.625Z,986
2024-01-15T17:24:37.034Z,986
2024-01-15T17:29:38.409Z,986
2024-01-15T17:34:39.917Z,986
2024-01-15T17:39:41.365Z,986
2024-01-15T17:44:42.886Z,986
2024-01-15T17:49:44.397Z,986
2024-01-15T17:54:45.810Z,986
2024-01-15T17:59:47.242Z,986
2024-01-15T18:04:48.719Z,986
2024-01-15T18:09:50.227Z,986
2024-01-15T18:14:51.630Z,986
2024-01-15T18:19:53.099Z,986
2024-01-15T18:24:54.487Z,986
2024-01-15T18:29:55.947Z,986
2024-01-15T18:34:57.620Z,986
2024-01-15T18:39:58.997Z,986
2024-01-15T18:45:00.491Z,986
2024-01-15T18:50:02.111Z,986
2024-01-15T18:55:03.636Z,986
2024-01-15T19:00:05.041Z,986
2024-01-15T19:05:06.554Z,986
2024-01-15T19:10:08.017Z,985
2024-01-15T19:15:09.579Z,985
2024-01-15T19:20:11.036Z,985
2024-01-15T19:25:12.665Z,985
2024-01-15T19:30:14.100Z,985
2024-01-15T19:35:15.846Z,985
2024-01-15T19:40:17.271Z,985
2024-01-15T19:45:18.696Z,985
2024-01-15T19:50:20.569Z,985
2024-01-15T19:55:22.027Z,985
2024-01-15T20:00:23.514Z,985
2024-01-15T20:05:25.106Z,985
2024-01-15T20:10:26.641Z,985
2024-01-15T20:15:28.211Z,985
2024-01-15T20:20:29.781Z,985
2024-01-15T20:25:31.205Z,985
2024-01-15T20:30:32.607Z,984
2024-01-15T20:35:34.175Z,984
2024-01-15T20:40:36.003Z,984
2024-01-15T20:45:37.568Z,984
2024-01-15T20:50:39.090Z,984
2024-01-15T20:55:40.510Z,984
2024-01-15T21:00:42.030Z,984
2024-01-15T21:05:43.644Z,984
2024-01-15T21:10:45.089Z,984
2024-01-15T21:15:46.571Z,984
2024-01-15T21:20:48.202Z,984
2024-01-15T21:25:49.625Z,984
2024-01-15T21:30:50.996Z,984
2024-01-15T21:35:52.578Z,984
2024-01-15T21:40:54.064Z,984
2024-01-15T21:45:55.545Z,984
2024-01-15T21:50:56.924Z,983
2024-01-15T21:55:58.496Z,983
2024-01-15T22:01:00.162Z,983
2024-01-15T22:06:01.787Z,983
2024-01-15T22:11:03.301Z,983
2024-01-15T22:16:04.731Z,983
2024-01-15T22:21:06.173Z,983
2024-01-15T22:26:07.616Z,983
2024-01-15T22:31:09.033Z,983
2024-01-15T22:36:10.479Z,983
2024-01-15T22:41:11.964Z,983
2024-01-15T22:46:13.486Z,983
2024-01-15T22:51:14.935Z,983
2024-01-15T22:56:16.475Z,983
2024-01-15T23:01:17.870Z,983
2024-01-15T23:06:19.431Z,983
2024-01-15T23:11:20.924Z,983
2024-01-15T23:16:22.402Z,983
2024-01-15T23:21:24.128Z,983
2024-01-15T23:26:25.578Z,983
2024-01-15T23:31:27.000Z,983
2024-01-15T23:36:28.838Z,983
2024-01-15T23:41:30.356Z,983
2024-01-15T23:46:31.800Z,983
2024-01-15T23:51:33.525Z,983
2024-01-15T23:56:35.072Z,983
